sensor_id;sensor_type;location;lat;lon;timestamp;P1;durP1;ratioP1;P2;durP2;ratioP2
8177;SDS011;4130;48.740;9.132;2024-01-11T00:01:52;24.07;;;12.67;;
8177;SDS011;4130;48.740;9.132;2024-01-11T00:04:19;19.67;;;10.90;;
8177;SDS011;4130;48.740;9.132;2024-01-11T00:06:46;24.30;;;11.40;;
8177;SDS011;4130;48.740;9.132;2024-01-11T00:09:13;25.20;;;12.33;;
8177;SDS011;4130;48.740;9.132;2024-01-11T00:11:41;21.93;;;11.80;;
8177;SDS011;4130;48.740;9.132;2024-01-11T00:14:08;21.33;;;11.50;;
8177;SDS011;4130;48.740;9.132;2024-01-11T00:16:35;23.80;;;11.80;;
8177;SDS011;4130;48.740;9.132;2024-01-11T00:19:03;22.47;;;11.07;;
8177;SDS011;4130;48.740;9.132;2024-01-11T00:21:30;20.03;;;11.00;;
8177;SDS011;4130;48.740;9.132;2024-01-11T00:23:57;23.87;;;11.27;;
8177;SDS011;4130;48.740;9.132;2024-01-11T00:26:24;21.57;;;11.80;;
8177;SDS011;4130;48.740;9.132;2024-01-11T00:29:04;27.30;;;11.53;;
8177;SDS011;4130;48.740;9.132;2024-01-11T00:31:32;26.37;;;12.30;;
8177;SDS011;4130;48.740;9.132;2024-01-11T00:34:02;21.57;;;11.40;;
8177;SDS011;4130;48.740;9.132;2024-01-11T00:36:29;23.87;;;12.57;;
8177;SDS011;4130;48.740;9.132;2024-01-11T00:38:55;25.03;;;11.83;;
8177;SDS011;4130;48.740;9.132;2024-01-11T00:41:22;22.00;;;11.27;;
8177;SDS011;4130;48.740;9.132;2024-01-11T00:43:49;22.30;;;11.93;;
8177;SDS011;4130;48.740;9.132;2024-01-11T00:46:18;19.13;;;11.27;;
8177;SDS011;4130;48.740;9.132;2024-01-11T00:48:45;23.60;;;10.67;;
8177;SDS011;4130;48.740;9.132;2024-01-11T00:51:12;21.93;;;11.50;;
8177;SDS011;4130;48.740;9.132;2024-01-11T00:53:39;21.87;;;11.53;;
8177;SDS011;4130;48.740;9.132;2024-01-11T00:56:14;24.80;;;12.13;;
8177;SDS011;4130;48.740;9.132;2024-01-11T00:58:42;24.53;;;12.87;;
8177;SDS011;4130;48.740;9.132;2024-01-11T01:01:09;24.83;;;11.77;;
8177;SDS011;4130;48.740;9.132;2024-01-11T01:03:37;24.43;;;11.53;;
8177;SDS011;4130;48.740;9.132;2024-01-11T01:06:04;20.40;;;11.07;;
8177;SDS011;4130;48.740;9.132;2024-01-11T01:08:31;23.00;;;11.17;;
8177;SDS011;4130;48.740;9.132;2024-01-11T01:10:58;25.37;;;12.40;;
8177;SDS011;4130;48.740;9.132;2024-01-11T01:13:25;22.03;;;10.90;;
8177;SDS011;4130;48.740;9.132;2024-01-11T01:15:52;20.27;;;10.80;;
8177;SDS011;4130;48.740;9.132;2024-01-11T01:18:19;21.57;;;11.43;;
8177;SDS011;4130;48.740;9.132;2024-01-11T01:20:48;23.10;;;12.33;;
8177;SDS011;4130;48.740;9.132;2024-01-11T01:23:14;25.97;;;12.13;;
8177;SDS011;4130;48.740;9.132;2024-01-11T01:25:41;21.73;;;12.33;;
8177;SDS011;4130;48.740;9.132;2024-01-11T01:28:08;23.00;;;12.47;;
8177;SDS011;4130;48.740;9.132;2024-01-11T01:30:35;23.17;;;11.97;;
8177;SDS011;4130;48.740;9.132;2024-01-11T01:33:02;24.00;;;12.03;;
8177;SDS011;4130;48.740;9.132;2024-01-11T01:35:30;23.63;;;11.73;;
8177;SDS011;4130;48.740;9.132;2024-01-11T01:37:58;22.87;;;11.67;;
8177;SDS011;4130;48.740;9.132;2024-01-11T01:40:25;23.17;;;11.57;;
8177;SDS011;4130;48.740;9.132;2024-01-11T01:42:57;23.37;;;12.57;;
8177;SDS011;4130;48.740;9.132;2024-01-11T01:45:25;24.27;;;12.63;;
8177;SDS011;4130;48.740;9.132;2024-01-11T01:47:52;26.37;;;12.57;;
8177;SDS011;4130;48.740;9.132;2024-01-11T01:50:19;22.67;;;11.77;;
8177;SDS011;4130;48.740;9.132;2024-01-11T01:52:47;24.13;;;12.57;;
8177;SDS011;4130;48.740;9.132;2024-01-11T01:55:17;23.17;;;12.03;;
8177;SDS011;4130;48.740;9.132;2024-01-11T01:57:46;24.10;;;11.87;;
8177;SDS011;4130;48.740;9.132;2024-01-11T02:00:15;24.07;;;13.20;;
8177;SDS011;4130;48.740;9.132;2024-01-11T02:02:42;24.73;;;12.03;;
8177;SDS011;4130;48.740;9.132;2024-01-11T02:05:11;27.40;;;12.27;;
8177;SDS011;4130;48.740;9.132;2024-01-11T02:07:40;22.93;;;11.60;;
8177;SDS011;4130;48.740;9.132;2024-01-11T02:10:07;23.10;;;11.97;;
8177;SDS011;4130;48.740;9.132;2024-01-11T02:12:36;25.83;;;12.57;;
8177;SDS011;4130;48.740;9.132;2024-01-11T02:15:04;23.57;;;12.03;;
8177;SDS011;4130;48.740;9.132;2024-01-11T02:17:31;22.67;;;12.13;;
8177;SDS011;4130;48.740;9.132;2024-01-11T02:19:58;21.13;;;11.90;;
8177;SDS011;4130;48.740;9.132;2024-01-11T02:22:28;24.60;;;11.97;;
8177;SDS011;4130;48.740;9.132;2024-01-11T02:25:03;23.67;;;12.30;;
8177;SDS011;4130;48.740;9.132;2024-01-11T02:27:30;25.00;;;12.47;;
8177;SDS011;4130;48.740;9.132;2024-01-11T02:29:57;22.20;;;11.53;;
8177;SDS011;4130;48.740;9.132;2024-01-11T02:32:24;24.47;;;12.73;;
8177;SDS011;4130;48.740;9.132;2024-01-11T02:34:51;19.93;;;11.73;;
8177;SDS011;4130;48.740;9.132;2024-01-11T02:37:19;24.00;;;11.70;;
8177;SDS011;4130;48.740;9.132;2024-01-11T02:39:46;21.97;;;11.07;;
8177;SDS011;4130;48.740;9.132;2024-01-11T02:42:14;26.73;;;12.73;;
8177;SDS011;4130;48.740;9.132;2024-01-11T02:44:41;21.77;;;11.17;;
8177;SDS011;4130;48.740;9.132;2024-01-11T02:47:08;26.13;;;11.93;;
8177;SDS011;4130;48.740;9.132;2024-01-11T02:49:35;25.33;;;12.40;;
8177;SDS011;4130;48.740;9.132;2024-01-11T02:52:03;25.47;;;12.13;;
8177;SDS011;4130;48.740;9.132;2024-01-11T02:54:30;25.37;;;12.50;;
8177;SDS011;4130;48.740;9.132;2024-01-11T02:56:57;27.83;;;13.53;;
8177;SDS011;4130;48.740;9.132;2024-01-11T02:59:26;21.13;;;12.03;;
8177;SDS011;4130;48.740;9.132;2024-01-11T03:01:53;25.77;;;11.70;;
8177;SDS011;4130;48.740;9.132;2024-01-11T03:04:20;23.53;;;11.27;;
8177;SDS011;4130;48.740;9.132;2024-01-11T03:06:47;21.30;;;11.87;;
8177;SDS011;4130;48.740;9.132;2024-01-11T03:09:14;21.60;;;11.23;;
8177;SDS011;4130;48.740;9.132;2024-01-11T03:11:42;22.77;;;11.93;;
8177;SDS011;4130;48.740;9.132;2024-01-11T03:14:09;21.10;;;11.30;;
8177;SDS011;4130;48.740;9.132;2024-01-11T03:16:37;26.60;;;13.07;;
8177;SDS011;4130;48.740;9.132;2024-01-11T03:19:05;24.60;;;11.70;;
8177;SDS011;4130;48.740;9.132;2024-01-11T03:21:32;22.83;;;12.07;;
8177;SDS011;4130;48.740;9.132;2024-01-11T03:23:59;24.23;;;12.43;;
8177;SDS011;4130;48.740;9.132;2024-01-11T03:26:26;23.83;;;11.63;;
8177;SDS011;4130;48.740;9.132;2024-01-11T03:28:53;24.10;;;11.10;;
8177;SDS011;4130;48.740;9.132;2024-01-11T03:31:20;22.33;;;11.93;;
8177;SDS011;4130;48.740;9.132;2024-01-11T03:33:48;23.77;;;12.47;;
8177;SDS011;4130;48.740;9.132;2024-01-11T03:36:15;19.93;;;11.27;;
8177;SDS011;4130;48.740;9.132;2024-01-11T03:38:43;23.87;;;12.70;;
8177;SDS011;4130;48.740;9.132;2024-01-11T03:41:10;21.00;;;11.27;;
8177;SDS011;4130;48.740;9.132;2024-01-11T03:43:37;25.73;;;11.60;;
8177;SDS011;4130;48.740;9.132;2024-01-11T03:46:04;26.33;;;12.97;;
8177;SDS011;4130;48.740;9.132;2024-01-11T03:48:31;26.57;;;12.03;;
8177;SDS011;4130;48.740;9.132;2024-01-11T03:50:59;21.23;;;12.40;;
8177;SDS011;4130;48.740;9.132;2024-01-11T03:53:26;24.17;;;12.00;;
8177;SDS011;4130;48.740;9.132;2024-01-11T03:55:54;24.67;;;13.27;;
8177;SDS011;4130;48.740;9.132;2024-01-11T03:58:21;20.40;;;12.13;;
8177;SDS011;4130;48.740;9.132;2024-01-11T04:00:48;22.20;;;12.43;;
8177;SDS011;4130;48.740;9.132;2024-01-11T04:03:15;22.00;;;12.03;;
8177;SDS011;4130;48.740;9.132;2024-01-11T04:05:42;23.40;;;11.70;;
8177;SDS011;4130;48.740;9.132;2024-01-11T04:08:10;26.57;;;12.43;;
8177;SDS011;4130;48.740;9.132;2024-01-11T04:10:38;25.40;;;11.87;;
8177;SDS011;4130;48.740;9.132;2024-01-11T04:13:06;23.47;;;12.73;;
8177;SDS011;4130;48.740;9.132;2024-01-11T04:15:33;20.77;;;11.83;;
8177;SDS011;4130;48.740;9.132;2024-01-11T04:18:00;20.67;;;12.03;;
8177;SDS011;4130;48.740;9.132;2024-01-11T04:20:27;23.70;;;13.37;;
8177;SDS011;4130;48.740;9.132;2024-01-11T04:22:54;23.93;;;12.03;;
8177;SDS011;4130;48.740;9.132;2024-01-11T04:25:23;28.73;;;13.87;;
8177;SDS011;4130;48.740;9.132;2024-01-11T04:27:50;26.33;;;12.73;;
8177;SDS011;4130;48.740;9.132;2024-01-11T04:30:17;24.37;;;12.47;;
8177;SDS011;4130;48.740;9.132;2024-01-11T04:32:43;26.83;;;12.83;;
8177;SDS011;4130;48.740;9.132;2024-01-11T04:35:11;26.30;;;12.97;;
8177;SDS011;4130;48.740;9.132;2024-01-11T04:37:38;23.97;;;12.93;;
8177;SDS011;4130;48.740;9.132;2024-01-11T04:40:06;22.17;;;11.30;;
8177;SDS011;4130;48.740;9.132;2024-01-11T04:42:35;22.60;;;12.53;;
8177;SDS011;4130;48.740;9.132;2024-01-11T04:45:02;21.27;;;12.33;;
8177;SDS011;4130;48.740;9.132;2024-01-11T04:47:33;21.40;;;11.43;;
8177;SDS011;4130;48.740;9.132;2024-01-11T04:50:00;23.37;;;13.17;;
8177;SDS011;4130;48.740;9.132;2024-01-11T04:52:27;24.50;;;13.03;;
8177;SDS011;4130;48.740;9.132;2024-01-11T04:54:57;21.63;;;11.70;;
8177;SDS011;4130;48.740;9.132;2024-01-11T04:57:24;25.80;;;12.07;;
8177;SDS011;4130;48.740;9.132;2024-01-11T04:59:52;23.03;;;12.30;;
8177;SDS011;4130;48.740;9.132;2024-01-11T05:02:25;26.77;;;12.83;;
8177;SDS011;4130;48.740;9.132;2024-01-11T05:04:52;26.27;;;13.20;;
8177;SDS011;4130;48.740;9.132;2024-01-11T05:07:19;25.90;;;13.33;;
8177;SDS011;4130;48.740;9.132;2024-01-11T05:09:46;24.37;;;12.27;;
8177;SDS011;4130;48.740;9.132;2024-01-11T05:12:21;24.13;;;13.80;;
8177;SDS011;4130;48.740;9.132;2024-01-11T05:14:48;26.13;;;12.53;;
8177;SDS011;4130;48.740;9.132;2024-01-11T05:17:17;24.57;;;12.50;;
8177;SDS011;4130;48.740;9.132;2024-01-11T05:19:44;27.80;;;13.40;;
8177;SDS011;4130;48.740;9.132;2024-01-11T05:22:11;26.90;;;13.23;;
8177;SDS011;4130;48.740;9.132;2024-01-11T05:24:38;27.80;;;13.47;;
8177;SDS011;4130;48.740;9.132;2024-01-11T05:27:05;27.53;;;13.33;;
8177;SDS011;4130;48.740;9.132;2024-01-11T05:29:32;30.20;;;12.73;;
8177;SDS011;4130;48.740;9.132;2024-01-11T05:31:59;25.80;;;13.33;;
8177;SDS011;4130;48.740;9.132;2024-01-11T05:34:27;20.30;;;12.20;;
8177;SDS011;4130;48.740;9.132;2024-01-11T05:36:55;23.83;;;12.70;;
8177;SDS011;4130;48.740;9.132;2024-01-11T05:39:22;29.00;;;13.20;;
8177;SDS011;4130;48.740;9.132;2024-01-11T05:41:50;25.90;;;12.90;;
8177;SDS011;4130;48.740;9.132;2024-01-11T05:44:17;23.23;;;13.23;;
8177;SDS011;4130;48.740;9.132;2024-01-11T05:46:45;24.57;;;13.93;;
8177;SDS011;4130;48.740;9.132;2024-01-11T05:49:12;24.43;;;12.63;;
8177;SDS011;4130;48.740;9.132;2024-01-11T05:51:40;25.97;;;13.57;;
8177;SDS011;4130;48.740;9.132;2024-01-11T05:54:08;26.57;;;12.47;;
8177;SDS011;4130;48.740;9.132;2024-01-11T05:56:35;26.77;;;13.37;;
8177;SDS011;4130;48.740;9.132;2024-01-11T05:59:02;25.00;;;13.33;;
8177;SDS011;4130;48.740;9.132;2024-01-11T06:01:29;25.17;;;14.00;;
8177;SDS011;4130;48.740;9.132;2024-01-11T06:03:57;25.03;;;13.87;;
8177;SDS011;4130;48.740;9.132;2024-01-11T06:06:24;25.90;;;13.37;;
8177;SDS011;4130;48.740;9.132;2024-01-11T06:08:53;31.10;;;13.30;;
8177;SDS011;4130;48.740;9.132;2024-01-11T06:11:20;34.37;;;16.30;;
8177;SDS011;4130;48.740;9.132;2024-01-11T06:13:47;57.60;;;28.43;;
8177;SDS011;4130;48.740;9.132;2024-01-11T06:16:14;67.93;;;31.87;;
8177;SDS011;4130;48.740;9.132;2024-01-11T06:18:41;53.27;;;26.30;;
8177;SDS011;4130;48.740;9.132;2024-01-11T06:21:08;47.53;;;25.23;;
8177;SDS011;4130;48.740;9.132;2024-01-11T06:23:35;46.50;;;22.33;;
8177;SDS011;4130;48.740;9.132;2024-01-11T06:26:03;39.70;;;20.50;;
8177;SDS011;4130;48.740;9.132;2024-01-11T06:28:30;36.17;;;18.97;;
8177;SDS011;4130;48.740;9.132;2024-01-11T06:30:57;33.67;;;17.17;;
8177;SDS011;4130;48.740;9.132;2024-01-11T06:33:26;31.03;;;15.47;;
8177;SDS011;4130;48.740;9.132;2024-01-11T06:35:54;33.17;;;15.63;;
8177;SDS011;4130;48.740;9.132;2024-01-11T06:38:22;28.77;;;15.73;;
8177;SDS011;4130;48.740;9.132;2024-01-11T06:40:49;27.87;;;14.27;;
8177;SDS011;4130;48.740;9.132;2024-01-11T06:43:17;27.57;;;14.40;;
8177;SDS011;4130;48.740;9.132;2024-01-11T06:45:45;31.17;;;15.83;;
8177;SDS011;4130;48.740;9.132;2024-01-11T06:48:12;27.47;;;14.47;;
8177;SDS011;4130;48.740;9.132;2024-01-11T06:50:39;31.33;;;14.43;;
8177;SDS011;4130;48.740;9.132;2024-01-11T06:53:07;30.00;;;14.90;;
8177;SDS011;4130;48.740;9.132;2024-01-11T06:55:34;25.80;;;13.27;;
8177;SDS011;4130;48.740;9.132;2024-01-11T06:58:01;23.30;;;13.23;;
8177;SDS011;4130;48.740;9.132;2024-01-11T07:00:30;24.57;;;14.67;;
8177;SDS011;4130;48.740;9.132;2024-01-11T07:02:57;26.37;;;13.47;;
8177;SDS011;4130;48.740;9.132;2024-01-11T07:05:24;27.43;;;13.83;;
8177;SDS011;4130;48.740;9.132;2024-01-11T07:07:51;26.87;;;13.43;;
8177;SDS011;4130;48.740;9.132;2024-01-11T07:10:18;30.73;;;15.13;;
8177;SDS011;4130;48.740;9.132;2024-01-11T07:12:45;28.13;;;14.13;;
8177;SDS011;4130;48.740;9.132;2024-01-11T07:15:19;27.93;;;14.70;;
8177;SDS011;4130;48.740;9.132;2024-01-11T07:17:49;29.60;;;14.57;;
8177;SDS011;4130;48.740;9.132;2024-01-11T07:20:16;24.20;;;14.67;;
8177;SDS011;4130;48.740;9.132;2024-01-11T07:22:44;28.50;;;14.03;;
8177;SDS011;4130;48.740;9.132;2024-01-11T07:25:11;32.63;;;14.80;;
8177;SDS011;4130;48.740;9.132;2024-01-11T07:27:39;33.90;;;16.00;;
8177;SDS011;4130;48.740;9.132;2024-01-11T07:30:06;29.60;;;15.33;;
8177;SDS011;4130;48.740;9.132;2024-01-11T07:32:34;29.90;;;15.97;;
8177;SDS011;4130;48.740;9.132;2024-01-11T07:35:03;32.33;;;15.80;;
8177;SDS011;4130;48.740;9.132;2024-01-11T07:37:31;28.00;;;15.30;;
8177;SDS011;4130;48.740;9.132;2024-01-11T07:39:58;31.23;;;15.50;;
8177;SDS011;4130;48.740;9.132;2024-01-11T07:42:26;28.17;;;14.40;;
8177;SDS011;4130;48.740;9.132;2024-01-11T07:44:53;26.00;;;14.60;;
8177;SDS011;4130;48.740;9.132;2024-01-11T07:47:20;25.27;;;14.40;;
8177;SDS011;4130;48.740;9.132;2024-01-11T07:49:47;26.47;;;14.57;;
8177;SDS011;4130;48.740;9.132;2024-01-11T07:52:15;26.97;;;15.20;;
8177;SDS011;4130;48.740;9.132;2024-01-11T07:54:42;26.47;;;15.07;;
8177;SDS011;4130;48.740;9.132;2024-01-11T07:57:09;35.80;;;17.03;;
8177;SDS011;4130;48.740;9.132;2024-01-11T07:59:37;24.63;;;14.47;;
8177;SDS011;4130;48.740;9.132;2024-01-11T08:02:05;27.73;;;16.00;;
8177;SDS011;4130;48.740;9.132;2024-01-11T08:04:33;31.57;;;16.43;;
8177;SDS011;4130;48.740;9.132;2024-01-11T08:07:00;26.43;;;14.97;;
8177;SDS011;4130;48.740;9.132;2024-01-11T08:09:28;28.33;;;15.50;;
8177;SDS011;4130;48.740;9.132;2024-01-11T08:11:57;31.13;;;15.13;;
8177;SDS011;4130;48.740;9.132;2024-01-11T08:14:24;28.37;;;14.40;;
8177;SDS011;4130;48.740;9.132;2024-01-11T08:16:51;26.37;;;14.77;;
8177;SDS011;4130;48.740;9.132;2024-01-11T08:19:19;27.97;;;15.17;;
8177;SDS011;4130;48.740;9.132;2024-01-11T08:21:46;31.67;;;16.20;;
8177;SDS011;4130;48.740;9.132;2024-01-11T08:24:13;32.70;;;16.83;;
8177;SDS011;4130;48.740;9.132;2024-01-11T08:26:41;28.30;;;15.93;;
8177;SDS011;4130;48.740;9.132;2024-01-11T08:29:08;31.60;;;15.23;;
8177;SDS011;4130;48.740;9.132;2024-01-11T08:31:36;26.90;;;14.40;;
8177;SDS011;4130;48.740;9.132;2024-01-11T08:34:03;26.73;;;14.30;;
8177;SDS011;4130;48.740;9.132;2024-01-11T08:36:31;31.40;;;15.57;;
8177;SDS011;4130;48.740;9.132;2024-01-11T08:39:00;25.87;;;14.73;;
8177;SDS011;4130;48.740;9.132;2024-01-11T08:41:27;27.93;;;14.70;;
8177;SDS011;4130;48.740;9.132;2024-01-11T08:43:56;27.67;;;14.53;;
8177;SDS011;4130;48.740;9.132;2024-01-11T08:46:24;27.57;;;14.80;;
8177;SDS011;4130;48.740;9.132;2024-01-11T08:48:51;25.67;;;14.53;;
8177;SDS011;4130;48.740;9.132;2024-01-11T08:51:18;30.80;;;13.73;;
8177;SDS011;4130;48.740;9.132;2024-01-11T08:53:45;24.83;;;14.03;;
8177;SDS011;4130;48.740;9.132;2024-01-11T08:56:13;27.03;;;15.00;;
8177;SDS011;4130;48.740;9.132;2024-01-11T08:58:42;29.20;;;14.50;;
8177;SDS011;4130;48.740;9.132;2024-01-11T09:01:10;30.30;;;14.53;;
8177;SDS011;4130;48.740;9.132;2024-01-11T09:03:37;25.87;;;14.13;;
8177;SDS011;4130;48.740;9.132;2024-01-11T09:06:05;27.73;;;14.00;;
8177;SDS011;4130;48.740;9.132;2024-01-11T09:08:32;26.93;;;15.23;;
8177;SDS011;4130;48.740;9.132;2024-01-11T09:10:59;25.47;;;13.20;;
8177;SDS011;4130;48.740;9.132;2024-01-11T09:13:27;27.40;;;14.63;;
8177;SDS011;4130;48.740;9.132;2024-01-11T09:15:55;33.40;;;14.50;;
8177;SDS011;4130;48.740;9.132;2024-01-11T09:18:23;28.33;;;13.33;;
8177;SDS011;4130;48.740;9.132;2024-01-11T09:20:51;24.33;;;13.00;;
8177;SDS011;4130;48.740;9.132;2024-01-11T09:23:18;28.40;;;14.93;;
8177;SDS011;4130;48.740;9.132;2024-01-11T09:25:45;26.23;;;13.57;;
8177;SDS011;4130;48.740;9.132;2024-01-11T09:28:12;26.90;;;14.30;;
8177;SDS011;4130;48.740;9.132;2024-01-11T09:30:40;34.27;;;15.53;;
8177;SDS011;4130;48.740;9.132;2024-01-11T09:33:07;29.03;;;16.13;;
8177;SDS011;4130;48.740;9.132;2024-01-11T09:35:36;32.67;;;15.97;;
8177;SDS011;4130;48.740;9.132;2024-01-11T09:38:03;30.17;;;15.83;;
8177;SDS011;4130;48.740;9.132;2024-01-11T09:40:31;27.53;;;14.87;;
8177;SDS011;4130;48.740;9.132;2024-01-11T09:42:58;32.50;;;16.57;;
8177;SDS011;4130;48.740;9.132;2024-01-11T09:45:26;26.43;;;14.40;;
8177;SDS011;4130;48.740;9.132;2024-01-11T09:47:53;28.63;;;15.03;;
8177;SDS011;4130;48.740;9.132;2024-01-11T09:50:20;27.93;;;14.90;;
8177;SDS011;4130;48.740;9.132;2024-01-11T09:52:50;27.43;;;14.53;;
8177;SDS011;4130;48.740;9.132;2024-01-11T09:55:18;33.43;;;15.63;;
8177;SDS011;4130;48.740;9.132;2024-01-11T09:57:46;31.17;;;16.33;;
8177;SDS011;4130;48.740;9.132;2024-01-11T10:00:16;28.07;;;15.07;;
8177;SDS011;4130;48.740;9.132;2024-01-11T10:02:44;30.30;;;16.30;;
8177;SDS011;4130;48.740;9.132;2024-01-11T10:05:12;27.07;;;14.80;;
8177;SDS011;4130;48.740;9.132;2024-01-11T10:07:40;31.60;;;16.30;;
8177;SDS011;4130;48.740;9.132;2024-01-11T10:10:09;29.90;;;14.77;;
8177;SDS011;4130;48.740;9.132;2024-01-11T10:12:36;34.87;;;17.23;;
8177;SDS011;4130;48.740;9.132;2024-01-11T10:15:04;26.70;;;14.43;;
8177;SDS011;4130;48.740;9.132;2024-01-11T10:17:34;28.13;;;15.97;;
8177;SDS011;4130;48.740;9.132;2024-01-11T10:20:02;31.60;;;15.63;;
8177;SDS011;4130;48.740;9.132;2024-01-11T10:22:30;26.47;;;15.27;;
8177;SDS011;4130;48.740;9.132;2024-01-11T10:25:09;30.23;;;15.73;;
8177;SDS011;4130;48.740;9.132;2024-01-11T10:27:37;28.23;;;15.87;;
8177;SDS011;4130;48.740;9.132;2024-01-11T10:30:07;30.33;;;16.03;;
8177;SDS011;4130;48.740;9.132;2024-01-11T10:32:35;30.90;;;17.20;;
8177;SDS011;4130;48.740;9.132;2024-01-11T10:35:02;25.60;;;15.33;;
8177;SDS011;4130;48.740;9.132;2024-01-11T10:37:30;31.90;;;17.10;;
8177;SDS011;4130;48.740;9.132;2024-01-11T10:40:00;27.30;;;14.67;;
8177;SDS011;4130;48.740;9.132;2024-01-11T10:42:36;34.87;;;16.90;;
8177;SDS011;4130;48.740;9.132;2024-01-11T10:45:10;26.63;;;15.23;;
8177;SDS011;4130;48.740;9.132;2024-01-11T10:47:42;25.10;;;14.90;;
8177;SDS011;4130;48.740;9.132;2024-01-11T10:50:17;32.50;;;16.73;;
8177;SDS011;4130;48.740;9.132;2024-01-11T10:52:47;30.93;;;15.20;;
8177;SDS011;4130;48.740;9.132;2024-01-11T10:55:22;28.37;;;15.40;;
8177;SDS011;4130;48.740;9.132;2024-01-11T10:57:53;30.57;;;16.07;;
8177;SDS011;4130;48.740;9.132;2024-01-11T11:00:23;28.73;;;15.47;;
8177;SDS011;4130;48.740;9.132;2024-01-11T11:02:51;32.23;;;16.73;;
8177;SDS011;4130;48.740;9.132;2024-01-11T11:05:19;28.70;;;15.73;;
8177;SDS011;4130;48.740;9.132;2024-01-11T11:07:49;33.53;;;16.47;;
8177;SDS011;4130;48.740;9.132;2024-01-11T11:10:17;28.90;;;15.57;;
8177;SDS011;4130;48.740;9.132;2024-01-11T11:12:45;31.03;;;17.40;;
8177;SDS011;4130;48.740;9.132;2024-01-11T11:15:15;31.17;;;16.30;;
8177;SDS011;4130;48.740;9.132;2024-01-11T11:17:42;30.90;;;16.50;;
8177;SDS011;4130;48.740;9.132;2024-01-11T11:20:11;27.33;;;14.90;;
8177;SDS011;4130;48.740;9.132;2024-01-11T11:22:39;27.60;;;15.80;;
8177;SDS011;4130;48.740;9.132;2024-01-11T11:25:08;29.20;;;16.27;;
8177;SDS011;4130;48.740;9.132;2024-01-11T11:27:36;28.70;;;16.07;;
8177;SDS011;4130;48.740;9.132;2024-01-11T11:30:03;27.63;;;16.73;;
8177;SDS011;4130;48.740;9.132;2024-01-11T11:32:36;28.07;;;16.27;;
8177;SDS011;4130;48.740;9.132;2024-01-11T11:35:04;27.67;;;16.43;;
8177;SDS011;4130;48.740;9.132;2024-01-11T11:37:33;31.33;;;16.10;;
8177;SDS011;4130;48.740;9.132;2024-01-11T11:40:02;35.13;;;16.23;;
8177;SDS011;4130;48.740;9.132;2024-01-11T11:42:31;36.80;;;16.73;;
8177;SDS011;4130;48.740;9.132;2024-01-11T11:45:00;36.07;;;17.23;;
8177;SDS011;4130;48.740;9.132;2024-01-11T11:47:33;30.17;;;16.13;;
8177;SDS011;4130;48.740;9.132;2024-01-11T11:50:06;28.57;;;15.37;;
8177;SDS011;4130;48.740;9.132;2024-01-11T11:52:35;29.13;;;15.83;;
8177;SDS011;4130;48.740;9.132;2024-01-11T11:55:03;28.07;;;16.83;;
8177;SDS011;4130;48.740;9.132;2024-01-11T11:57:33;30.40;;;17.30;;
8177;SDS011;4130;48.740;9.132;2024-01-11T12:00:01;30.83;;;16.20;;
8177;SDS011;4130;48.740;9.132;2024-01-11T12:02:30;31.90;;;16.10;;
8177;SDS011;4130;48.740;9.132;2024-01-11T12:05:01;29.33;;;16.87;;
8177;SDS011;4130;48.740;9.132;2024-01-11T12:07:30;30.40;;;15.70;;
8177;SDS011;4130;48.740;9.132;2024-01-11T12:09:58;34.37;;;15.90;;
8177;SDS011;4130;48.740;9.132;2024-01-11T12:12:25;33.53;;;15.57;;
8177;SDS011;4130;48.740;9.132;2024-01-11T12:14:52;30.57;;;15.73;;
8177;SDS011;4130;48.740;9.132;2024-01-11T12:17:20;32.97;;;15.03;;
8177;SDS011;4130;48.740;9.132;2024-01-11T12:19:47;28.57;;;15.67;;
8177;SDS011;4130;48.740;9.132;2024-01-11T12:22:15;32.10;;;15.93;;
8177;SDS011;4130;48.740;9.132;2024-01-11T12:24:46;31.47;;;15.97;;
8177;SDS011;4130;48.740;9.132;2024-01-11T12:27:14;30.70;;;15.73;;
8177;SDS011;4130;48.740;9.132;2024-01-11T12:29:41;26.37;;;14.37;;
8177;SDS011;4130;48.740;9.132;2024-01-11T12:32:08;30.30;;;16.33;;
8177;SDS011;4130;48.740;9.132;2024-01-11T12:34:37;32.17;;;15.97;;
8177;SDS011;4130;48.740;9.132;2024-01-11T12:37:05;29.37;;;15.03;;
8177;SDS011;4130;48.740;9.132;2024-01-11T12:39:32;25.80;;;15.50;;
8177;SDS011;4130;48.740;9.132;2024-01-11T12:42:00;30.47;;;16.17;;
8177;SDS011;4130;48.740;9.132;2024-01-11T12:44:28;28.93;;;15.10;;
8177;SDS011;4130;48.740;9.132;2024-01-11T12:46:55;26.00;;;14.97;;
8177;SDS011;4130;48.740;9.132;2024-01-11T12:49:22;29.83;;;16.03;;
8177;SDS011;4130;48.740;9.132;2024-01-11T12:51:49;30.90;;;15.70;;
8177;SDS011;4130;48.740;9.132;2024-01-11T12:54:16;31.17;;;16.50;;
8177;SDS011;4130;48.740;9.132;2024-01-11T12:56:44;27.30;;;15.40;;
8177;SDS011;4130;48.740;9.132;2024-01-11T12:59:13;29.83;;;16.00;;
8177;SDS011;4130;48.740;9.132;2024-01-11T13:01:41;28.43;;;15.33;;
8177;SDS011;4130;48.740;9.132;2024-01-11T13:04:09;27.67;;;14.70;;
8177;SDS011;4130;48.740;9.132;2024-01-11T13:06:36;31.67;;;16.97;;
8177;SDS011;4130;48.740;9.132;2024-01-11T13:09:03;30.23;;;14.80;;
8177;SDS011;4130;48.740;9.132;2024-01-11T13:11:33;31.70;;;16.27;;
8177;SDS011;4130;48.740;9.132;2024-01-11T13:14:01;27.47;;;16.43;;
8177;SDS011;4130;48.740;9.132;2024-01-11T13:16:33;31.80;;;17.27;;
8177;SDS011;4130;48.740;9.132;2024-01-11T13:18:59;34.83;;;18.10;;
8177;SDS011;4130;48.740;9.132;2024-01-11T13:21:28;27.07;;;15.60;;
8177;SDS011;4130;48.740;9.132;2024-01-11T13:23:55;29.03;;;15.63;;
8177;SDS011;4130;48.740;9.132;2024-01-11T13:26:23;27.10;;;16.00;;
8177;SDS011;4130;48.740;9.132;2024-01-11T13:28:50;34.00;;;16.53;;
8177;SDS011;4130;48.740;9.132;2024-01-11T13:31:17;30.20;;;16.10;;
8177;SDS011;4130;48.740;9.132;2024-01-11T13:33:46;26.80;;;14.77;;
8177;SDS011;4130;48.740;9.132;2024-01-11T13:36:14;28.03;;;15.70;;
8177;SDS011;4130;48.740;9.132;2024-01-11T13:38:41;28.03;;;14.87;;
8177;SDS011;4130;48.740;9.132;2024-01-11T13:41:08;26.53;;;14.93;;
8177;SDS011;4130;48.740;9.132;2024-01-11T13:43:35;29.87;;;15.53;;
8177;SDS011;4130;48.740;9.132;2024-01-11T13:46:01;26.13;;;14.63;;
8177;SDS011;4130;48.740;9.132;2024-01-11T13:48:29;27.30;;;15.37;;
8177;SDS011;4130;48.740;9.132;2024-01-11T13:50:58;22.53;;;14.27;;
8177;SDS011;4130;48.740;9.132;2024-01-11T13:53:27;25.73;;;14.77;;
8177;SDS011;4130;48.740;9.132;2024-01-11T13:55:54;24.43;;;14.30;;
8177;SDS011;4130;48.740;9.132;2024-01-11T13:58:21;32.70;;;15.43;;
8177;SDS011;4130;48.740;9.132;2024-01-11T14:00:48;26.90;;;15.70;;
8177;SDS011;4130;48.740;9.132;2024-01-11T14:03:15;24.43;;;14.40;;
8177;SDS011;4130;48.740;9.132;2024-01-11T14:05:42;26.40;;;15.47;;
8177;SDS011;4130;48.740;9.132;2024-01-11T14:08:10;25.73;;;14.97;;
8177;SDS011;4130;48.740;9.132;2024-01-11T14:10:37;27.53;;;16.37;;
8177;SDS011;4130;48.740;9.132;2024-01-11T14:13:04;28.23;;;14.83;;
8177;SDS011;4130;48.740;9.132;2024-01-11T14:15:31;27.07;;;15.60;;
8177;SDS011;4130;48.740;9.132;2024-01-11T14:17:58;28.07;;;16.17;;
8177;SDS011;4130;48.740;9.132;2024-01-11T14:20:25;31.77;;;16.80;;
8177;SDS011;4130;48.740;9.132;2024-01-11T14:22:52;28.93;;;15.13;;
8177;SDS011;4130;48.740;9.132;2024-01-11T14:25:21;25.53;;;15.23;;
8177;SDS011;4130;48.740;9.132;2024-01-11T14:27:51;27.43;;;15.83;;
8177;SDS011;4130;48.740;9.132;2024-01-11T14:30:19;33.37;;;16.00;;
8177;SDS011;4130;48.740;9.132;2024-01-11T14:32:47;31.20;;;15.70;;
8177;SDS011;4130;48.740;9.132;2024-01-11T14:35:14;28.57;;;14.93;;
8177;SDS011;4130;48.740;9.132;2024-01-11T14:37:43;28.30;;;16.17;;
8177;SDS011;4130;48.740;9.132;2024-01-11T14:40:10;29.70;;;16.47;;
8177;SDS011;4130;48.740;9.132;2024-01-11T14:42:39;27.50;;;16.37;;
8177;SDS011;4130;48.740;9.132;2024-01-11T14:45:07;30.20;;;15.67;;
8177;SDS011;4130;48.740;9.132;2024-01-11T14:47:34;31.60;;;15.00;;
8177;SDS011;4130;48.740;9.132;2024-01-11T14:50:02;32.50;;;17.07;;
8177;SDS011;4130;48.740;9.132;2024-01-11T14:52:30;29.90;;;16.23;;